createdAt,value
2022-10-02T00:01:47.370Z,100976.34
2022-10-02T00:04:20.771Z,100969.22
2022-10-02T00:06:51.281Z,100968.22
2022-10-02T00:09:29.101Z,100971.75
2022-10-02T00:12:01.404Z,100967.38
2022-10-02T00:14:33.872Z,100959.50
2022-10-02T00:17:02.700Z,100955.44
2022-10-02T00:19:30.778Z,100955.00
2022-10-02T00:22:13.294Z,100962.19
2022-10-02T00:24:44.983Z,100964.00
2022-10-02T00:27:30.869Z,100968.66
2022-10-02T00:30:02.009Z,100967.44
2022-10-02T00:32:36.422Z,100978.47
2022-10-02T00:35:42.732Z,100974.13
2022-10-02T00:38:23.981Z,100980.84
2022-10-02T00:41:17.768Z,100987.41
2022-10-02T00:44:08.338Z,100982.59
2022-10-02T00:46:46.603Z,100989.50
2022-10-02T00:49:37.259Z,100992.00
2022-10-02T00:52:18.520Z,100988.59
2022-10-02T00:55:01.596Z,100990.66
2022-10-02T00:57:44.264Z,100995.88
2022-10-02T01:00:16.506Z,100997.38
2022-10-02T01:02:54.043Z,100987.09
2022-10-02T01:05:22.540Z,100998.69
2022-10-02T01:07:54.084Z,100997.56
2022-10-02T01:10:23.452Z,100994.09
2022-10-02T01:12:51.668Z,100996.81
2022-10-02T01:15:23.039Z,101003.66
2022-10-02T01:17:53.121Z,101002.72
2022-10-02T01:20:24.948Z,101003.59
2022-10-02T01:23:02.533Z,100994.94
2022-10-02T01:25:32.303Z,101000.19
2022-10-02T01:28:00.865Z,101001.13
2022-10-02T01:30:30.958Z,100998.41
2022-10-02T01:33:01.716Z,101002.13
2022-10-02T01:35:32.793Z,101002.06
2022-10-02T01:38:03.501Z,101000.28
2022-10-02T01:40:35.329Z,100995.03
2022-10-02T01:43:06.794Z,101009.06
2022-10-02T01:45:46.051Z,101002.56
2022-10-02T01:48:18.884Z,101005.88
2022-10-02T01:51:01.132Z,101006.69
2022-10-02T01:53:38.930Z,101000.63
2022-10-02T01:56:16.598Z,100998.31
2022-10-02T01:58:54.447Z,101001.63
2022-10-02T02:01:34.007Z,100985.31
2022-10-02T02:04:08.346Z,100992.00
2022-10-02T02:06:47.340Z,100992.78
2022-10-02T02:09:20.865Z,100990.16
2022-10-02T02:11:56.249Z,100976.94
2022-10-02T02:14:29.341Z,100978.63
2022-10-02T02:17:03.608Z,100973.28
2022-10-02T02:19:37.293Z,100979.22
2022-10-02T02:22:10.027Z,100979.31
2022-10-02T02:24:42.129Z,100972.38
2022-10-02T02:27:16.807Z,100977.72
2022-10-02T02:29:47.571Z,100976.94
2022-10-02T02:32:21.800Z,100969.00
2022-10-02T02:34:56.217Z,100966.28
2022-10-02T02:37:29.081Z,100962.06
2022-10-02T02:40:01.254Z,100965.53
2022-10-02T02:42:33.122Z,100970.94
2022-10-02T02:45:05.721Z,100971.00
2022-10-02T02:47:40.300Z,100974.41
2022-10-02T02:50:13.630Z,100970.16
2022-10-02T02:52:48.958Z,100976.25
2022-10-02T02:55:21.256Z,100973.56
2022-10-02T02:57:53.373Z,100975.59
2022-10-02T03:00:22.973Z,100965.38
2022-10-02T03:02:54.628Z,100969.34
2022-10-02T03:05:24.935Z,100967.47
2022-10-02T03:07:55.634Z,100966.44
2022-10-02T03:10:40.843Z,100972.22
2022-10-02T03:13:22.591Z,100962.75
2022-10-02T03:16:04.371Z,100957.16
2022-10-02T03:18:44.247Z,100954.59
2022-10-02T03:21:16.786Z,100964.75
2022-10-02T03:23:58.437Z,100951.81
2022-10-02T03:26:36.298Z,100961.72
2022-10-02T03:29:12.904Z,100955.28
2022-10-02T03:31:42.396Z,100961.38
2022-10-02T03:34:10.577Z,100956.81
2022-10-02T03:36:39.226Z,100955.97
2022-10-02T03:39:25.717Z,100952.41
2022-10-02T03:41:55.075Z,100945.75
2022-10-02T03:44:24.803Z,100948.19
2022-10-02T03:46:53.005Z,100946.56
2022-10-02T03:49:21.112Z,100948.28
2022-10-02T03:51:49.290Z,100946.69
2022-10-02T03:54:18.937Z,100948.28
2022-10-02T03:56:55.540Z,100952.84
2022-10-02T03:59:35.277Z,100958.00
2022-10-02T04:02:08.700Z,100947.34
2022-10-02T04:04:46.170Z,100950.16
2022-10-02T04:07:20.459Z,100958.75
2022-10-02T04:09:55.344Z,100944.06
2022-10-02T04:12:30.282Z,100937.47
2022-10-02T04:15:05.075Z,100942.72
2022-10-02T04:17:44.315Z,100954.78
2022-10-02T04:20:18.103Z,100948.88
2022-10-02T04:22:52.918Z,100953.13
2022-10-02T04:25:24.099Z,100952.63
2022-10-02T04:27:55.622Z,100957.84
2022-10-02T04:30:26.404Z,100950.41
2022-10-02T04:32:55.388Z,100950.00
2022-10-02T04:35:34.186Z,100941.28
2022-10-02T04:38:27.824Z,100945.84
2022-10-02T04:41:14.100Z,100946.53
2022-10-02T04:43:54.585Z,100949.31
2022-10-02T04:46:44.205Z,100945.16
2022-10-02T04:49:40.063Z,100948.03
2022-10-02T04:52:25.441Z,100951.34
2022-10-02T04:55:23.187Z,100955.81
2022-10-02T04:58:06.019Z,100953.03
2022-10-02T05:00:41.886Z,100958.34
2022-10-02T05:03:25.796Z,100954.13
2022-10-02T05:06:07.200Z,100964.59
2022-10-02T05:08:58.795Z,100957.59
2022-10-02T05:11:45.547Z,100953.56
2022-10-02T05:14:32.817Z,100960.47
2022-10-02T05:17:16.484Z,100965.88
2022-10-02T05:20:00.416Z,100969.28
2022-10-02T05:22:53.283Z,100971.91
2022-10-02T05:25:55.667Z,100966.66
2022-10-02T05:28:55.027Z,100977.28
2022-10-02T05:31:34.678Z,100974.34
2022-10-02T05:34:22.965Z,100975.50
2022-10-02T05:37:06.742Z,100986.59
2022-10-02T05:39:37.586Z,100976.97
2022-10-02T05:42:19.555Z,100974.66
2022-10-02T05:44:53.771Z,100959.72
2022-10-02T05:47:29.799Z,100966.91
2022-10-02T05:50:01.060Z,100973.84
2022-10-02T05:52:37.291Z,100977.19
2022-10-02T05:55:15.892Z,100979.38
2022-10-02T05:57:47.390Z,100985.63
2022-10-02T06:00:25.878Z,100984.38
2022-10-02T06:03:02.562Z,100992.84
2022-10-02T06:05:56.371Z,100995.72
2022-10-02T06:08:36.260Z,100987.63
2022-10-02T06:11:09.782Z,100990.22
2022-10-02T06:13:43.957Z,100996.22
2022-10-02T06:16:18.761Z,101001.47
2022-10-02T06:18:52.487Z,101000.72
2022-10-02T06:21:29.559Z,100999.00
2022-10-02T06:24:04.609Z,100990.31
2022-10-02T06:26:41.108Z,100999.19
2022-10-02T06:29:20.617Z,101000.84
2022-10-02T06:32:07.716Z,100993.50
2022-10-02T06:34:35.843Z,100990.13
2022-10-02T06:37:20.853Z,100993.44
2022-10-02T06:40:21.910Z,101003.41
2022-10-02T06:43:01.212Z,101016.91
2022-10-02T06:45:42.640Z,101010.22
2022-10-02T06:48:25.380Z,101009.91
2022-10-02T06:51:03.750Z,101006.78
2022-10-02T06:53:46.625Z,101012.00
2022-10-02T06:56:34.844Z,101004.94
2022-10-02T06:59:17.870Z,101010.25
2022-10-02T07:01:58.787Z,101012.88
2022-10-02T07:04:42.294Z,101005.09
2022-10-02T07:07:32.415Z,101007.56
2022-10-02T07:10:15.369Z,101005.50
2022-10-02T07:13:07.765Z,101010.00
2022-10-02T07:16:18.175Z,101013.72
2022-10-02T07:19:03.982Z,101006.88
2022-10-02T07:21:41.121Z,101017.44
2022-10-02T07:24:31.165Z,101021.34
2022-10-02T07:27:10.641Z,101020.50
2022-10-02T07:29:51.159Z,101026.06
2022-10-02T07:32:40.113Z,101019.81
2022-10-02T07:35:20.725Z,101033.41
2022-10-02T07:37:58.658Z,101042.06
2022-10-02T07:40:37.641Z,101040.69
2022-10-02T07:43:24.744Z,101039.44
2022-10-02T07:46:09.554Z,101048.72
2022-10-02T07:48:49.300Z,101044.84
2022-10-02T07:51:50.098Z,101043.09
2022-10-02T07:54:53.842Z,101052.63
2022-10-02T07:57:30.220Z,101054.94
2022-10-02T08:00:05.758Z,101057.97
2022-10-02T08:02:49.118Z,101055.69
2022-10-02T08:05:23.393Z,101053.75
2022-10-02T08:07:57.572Z,101049.81
2022-10-02T08:10:30.036Z,101038.53
2022-10-02T08:13:07.241Z,101049.06
2022-10-02T08:15:38.683Z,101046.88
2022-10-02T08:18:34.304Z,101046.28
2022-10-02T08:21:05.382Z,101040.53
2022-10-02T08:23:40.804Z,101036.88
2022-10-02T08:26:15.711Z,101033.78
2022-10-02T08:28:50.248Z,101038.00
2022-10-02T08:31:18.846Z,101034.22
2022-10-02T08:33:48.543Z,101038.75
2022-10-02T08:36:40.436Z,101041.28
2022-10-02T08:39:29.060Z,101024.59
2022-10-02T08:42:20.397Z,101023.47
2022-10-02T08:45:26.820Z,101036.22
2022-10-02T08:48:33.879Z,101033.28
2022-10-02T08:51:39.996Z,101032.41
2022-10-02T08:54:45.380Z,101027.75
2022-10-02T08:57:32.475Z,101029.69
2022-10-02T09:00:20.828Z,101026.72
2022-10-02T09:03:41.322Z,101032.41
2022-10-02T09:07:00.746Z,101023.03
2022-10-02T09:09:58.998Z,101007.47
2022-10-02T09:13:00.014Z,101015.00
2022-10-02T09:15:44.494Z,101018.31
2022-10-02T09:18:30.264Z,101016.59
2022-10-02T09:21:19.553Z,101006.63
2022-10-02T09:24:43.288Z,101007.78
2022-10-02T09:28:04.254Z,101006.19
2022-10-02T09:31:06.631Z,101013.13
2022-10-02T09:34:18.232Z,101023.00
2022-10-02T09:37:17.572Z,101027.00
2022-10-02T09:40:23.222Z,101028.47
2022-10-02T09:43:31.230Z,101036.81
2022-10-02T09:46:22.431Z,101038.59
2022-10-02T09:49:26.419Z,101046.19
2022-10-02T09:52:28.070Z,101035.47
2022-10-02T09:55:10.948Z,101037.34
2022-10-02T09:58:12.905Z,101037.34
2022-10-02T10:01:28.671Z,101044.47
2022-10-02T10:04:21.165Z,101040.19
2022-10-02T10:07:21.821Z,101049.00
2022-10-02T10:10:22.191Z,101057.19
2022-10-02T10:13:26.558Z,101047.69
2022-10-02T10:16:31.973Z,101040.31
2022-10-02T10:19:46.928Z,101043.69
2022-10-02T10:22:46.661Z,101043.47
2022-10-02T10:25:50.759Z,101046.81
2022-10-02T10:28:47.878Z,101044.88
2022-10-02T10:31:56.295Z,101045.91
2022-10-02T10:35:03.168Z,101046.88
2022-10-02T10:38:16.558Z,101049.13
2022-10-02T10:41:26.143Z,101062.63
2022-10-02T10:44:18.384Z,101071.84
2022-10-02T10:47:20.216Z,101075.31
2022-10-02T10:50:35.174Z,101075.06
2022-10-02T10:53:24.474Z,101073.88
2022-10-02T10:56:30.058Z,101070.28
2022-10-02T10:59:31.011Z,101073.94
2022-10-02T11:02:26.367Z,101080.28
2022-10-02T11:05:08.379Z,101081.78
2022-10-02T11:07:50.519Z,101083.19
2022-10-02T11:10:38.057Z,101094.28
2022-10-02T11:13:27.013Z,101100.28
2022-10-02T11:16:23.669Z,101097.22
2022-10-02T11:19:27.801Z,101105.22
2022-10-02T11:22:34.351Z,101112.41
2022-10-02T11:25:28.897Z,101118.97
2022-10-02T11:28:38.500Z,101126.84
2022-10-02T11:31:28.672Z,101127.69
2022-10-02T11:34:33.637Z,101125.56
2022-10-02T11:37:15.873Z,101139.47
2022-10-02T11:40:09.640Z,101150.03
2022-10-02T11:43:03.207Z,101148.53
2022-10-02T11:45:59.251Z,101154.06
2022-10-02T11:49:03.515Z,101147.97
2022-10-02T11:51:58.372Z,101161.53
2022-10-02T11:54:58.756Z,101164.94
2022-10-02T11:57:42.377Z,101163.88
2022-10-02T12:00:33.781Z,101170.97
2022-10-02T12:03:06.075Z,101171.72
2022-10-02T12:05:55.866Z,101172.03
2022-10-02T12:08:34.493Z,101166.88
2022-10-02T12:11:14.205Z,101168.97
2022-10-02T12:14:13.665Z,101185.47
2022-10-02T12:16:53.609Z,101179.31
2022-10-02T12:19:36.592Z,101187.16
2022-10-02T12:22:48.146Z,101179.84
2022-10-02T12:25:43.896Z,101185.22
2022-10-02T12:28:21.637Z,101199.31
2022-10-02T12:31:01.363Z,101206.78
2022-10-02T12:33:38.340Z,101206.63
2022-10-02T12:36:24.915Z,101224.50
2022-10-02T12:39:08.278Z,101223.75
2022-10-02T12:42:07.719Z,101207.25
2022-10-02T12:45:12.229Z,101221.13
2022-10-02T12:48:08.395Z,101212.69
2022-10-02T12:50:55.228Z,101237.47
2022-10-02T12:54:10.244Z,101230.72
2022-10-02T12:57:41.077Z,101233.63
2022-10-02T13:00:16.521Z,101251.78
2022-10-02T13:03:22.956Z,101239.78
2022-10-02T13:06:20.308Z,101257.19
2022-10-02T13:09:03.171Z,101261.19
2022-10-02T13:11:45.725Z,101270.66
2022-10-02T13:14:18.838Z,101261.41
2022-10-02T13:17:10.049Z,101264.53
2022-10-02T13:19:49.679Z,101279.22
2022-10-02T13:22:25.127Z,101276.75
2022-10-02T13:25:04.333Z,101265.13
2022-10-02T13:27:41.652Z,101272.22
2022-10-02T13:30:16.870Z,101272.22
2022-10-02T13:33:08.400Z,101279.78
2022-10-02T13:36:13.019Z,101291.06
2022-10-02T13:39:04.318Z,101302.47
2022-10-02T13:41:48.208Z,101293.81
2022-10-02T13:44:28.619Z,101294.16
2022-10-02T13:47:23.348Z,101303.47
2022-10-02T13:50:17.502Z,101307.09
2022-10-02T13:52:59.913Z,101291.69
2022-10-02T13:55:30.269Z,101297.78
2022-10-02T13:58:27.885Z,101301.22
2022-10-02T14:01:05.193Z,101303.00
2022-10-02T14:04:05.273Z,101310.00
2022-10-02T14:06:40.107Z,101293.44
2022-10-02T14:09:29.956Z,101311.19
2022-10-02T14:12:21.317Z,101302.50
2022-10-02T14:15:14.295Z,101318.13
2022-10-02T14:17:57.683Z,101300.00
2022-10-02T14:20:36.928Z,101318.59
2022-10-02T14:23:24.785Z,101320.66
2022-10-02T14:26:06.507Z,101314.75
2022-10-02T14:28:57.615Z,101326.72
2022-10-02T14:31:55.362Z,101335.22
2022-10-02T14:34:41.832Z,101328.97
2022-10-02T14:37:37.971Z,101331.09
2022-10-02T14:40:14.282Z,101337.19
2022-10-02T14:43:08.455Z,101347.00
2022-10-02T14:45:58.652Z,101339.75
2022-10-02T14:48:57.617Z,101359.03
2022-10-02T14:51:39.194Z,101356.22
2022-10-02T14:54:23.282Z,101355.50
2022-10-02T14:57:19.604Z,101338.56
2022-10-02T15:00:05.330Z,101350.72
2022-10-02T15:03:20.174Z,101350.59
2022-10-02T15:06:01.154Z,101364.41
2022-10-02T15:08:35.317Z,101352.09
2022-10-02T15:11:06.446Z,101362.41
2022-10-02T15:13:41.951Z,101358.84
2022-10-02T15:16:34.349Z,101366.59
2022-10-02T15:19:10.947Z,101360.38
2022-10-02T15:21:48.444Z,101366.59
2022-10-02T15:24:31.600Z,101369.63
2022-10-02T15:27:20.745Z,101390.53
2022-10-02T15:30:04.059Z,101385.59
2022-10-02T15:32:45.091Z,101393.88
2022-10-02T15:35:35.830Z,101396.41
2022-10-02T15:38:26.158Z,101404.47
2022-10-02T15:41:21.620Z,101401.41
2022-10-02T15:44:06.959Z,101406.63
2022-10-02T15:46:50.905Z,101408.31
2022-10-02T15:49:36.712Z,101410.94
2022-10-02T15:52:15.979Z,101408.53
2022-10-02T15:54:58.063Z,101415.44
2022-10-02T15:57:47.650Z,101420.81
2022-10-02T16:00:18.080Z,101414.72
2022-10-02T16:03:01.067Z,101429.50
2022-10-02T16:05:44.090Z,101432.00
2022-10-02T16:08:56.978Z,101444.50
2022-10-02T16:11:53.440Z,101447.34
2022-10-02T16:14:35.754Z,101449.84
2022-10-02T16:17:52.231Z,101445.94
2022-10-02T16:20:49.191Z,101445.94
2022-10-02T16:23:39.090Z,101445.84
2022-10-02T16:26:21.354Z,101445.72
2022-10-02T16:28:57.684Z,101444.59
2022-10-02T16:31:47.896Z,101461.28
2022-10-02T16:34:38.944Z,101442.81
2022-10-02T16:37:19.252Z,101447.94
2022-10-02T16:40:01.025Z,101454.78
2022-10-02T16:42:52.486Z,101449.66
2022-10-02T16:45:38.449Z,101458.94
2022-10-02T16:48:13.764Z,101463.91
2022-10-02T16:51:09.057Z,101472.53
2022-10-02T16:53:46.358Z,101474.09
2022-10-02T16:56:20.234Z,101469.88
2022-10-02T16:59:01.150Z,101464.41
2022-10-02T17:01:36.028Z,101473.25
2022-10-02T17:04:19.717Z,101470.63
2022-10-02T17:06:51.433Z,101454.03
2022-10-02T17:09:34.371Z,101476.91
2022-10-02T17:12:11.162Z,101479.53
2022-10-02T17:14:46.801Z,101482.22
2022-10-02T17:17:22.991Z,101492.81
2022-10-02T17:19:55.241Z,101483.16
2022-10-02T17:22:33.209Z,101493.63
2022-10-02T17:25:19.491Z,101488.53
2022-10-02T17:27:54.107Z,101491.22
2022-10-02T17:30:27.079Z,101494.88
2022-10-02T17:33:07.907Z,101500.31
2022-10-02T17:35:48.290Z,101506.31
2022-10-02T17:38:42.846Z,101510.09
2022-10-02T17:41:26.955Z,101506.53
2022-10-02T17:44:04.608Z,101522.22
2022-10-02T17:46:53.538Z,101527.44
2022-10-02T17:49:33.089Z,101530.13
2022-10-02T17:52:31.321Z,101525.75
2022-10-02T17:55:26.670Z,101528.34
2022-10-02T17:58:13.935Z,101533.63
2022-10-02T18:00:57.894Z,101525.88
2022-10-02T18:03:49.062Z,101531.00
2022-10-02T18:06:26.952Z,101538.97
2022-10-02T18:09:05.354Z,101533.84
2022-10-02T18:11:50.028Z,101533.16
2022-10-02T18:14:32.354Z,101534.13
2022-10-02T18:17:16.402Z,101540.44
2022-10-02T18:19:56.605Z,101544.81
2022-10-02T18:22:35.664Z,101544.94
2022-10-02T18:25:29.915Z,101539.16
2022-10-02T18:28:24.453Z,101550.75
2022-10-02T18:31:10.483Z,101542.25
2022-10-02T18:33:58.363Z,101547.94
2022-10-02T18:36:40.783Z,101551.69
2022-10-02T18:39:17.435Z,101550.97
2022-10-02T18:41:57.997Z,101555.44
2022-10-02T18:44:46.939Z,101549.38
2022-10-02T18:47:34.339Z,101546.72
2022-10-02T18:50:24.720Z,101550.25
2022-10-02T18:53:00.656Z,101556.22
2022-10-02T18:55:54.758Z,101548.66
2022-10-02T18:58:33.718Z,101551.38
2022-10-02T19:01:18.985Z,101554.91
2022-10-02T19:04:13.375Z,101565.34
2022-10-02T19:06:50.565Z,101563.41
2022-10-02T19:09:25.645Z,101562.44
2022-10-02T19:11:58.769Z,101562.56
2022-10-02T19:14:35.025Z,101553.25
2022-10-02T19:17:05.888Z,101562.16
2022-10-02T19:19:36.980Z,101566.63
2022-10-02T19:22:14.985Z,101568.56
2022-10-02T19:24:45.678Z,101560.97
2022-10-02T19:27:20.683Z,101568.91
2022-10-02T19:29:55.970Z,101575.09
2022-10-02T19:32:29.054Z,101569.06
2022-10-02T19:35:06.394Z,101566.66
2022-10-02T19:37:41.549Z,101581.56
2022-10-02T19:40:16.800Z,101573.09
2022-10-02T19:42:49.575Z,101576.66
2022-10-02T19:45:25.486Z,101584.59
2022-10-02T19:47:58.261Z,101583.84
2022-10-02T19:50:41.726Z,101591.81
2022-10-02T19:53:23.519Z,101589.38
2022-10-02T19:55:55.783Z,101592.00
2022-10-02T19:58:27.264Z,101600.75
2022-10-02T20:00:57.787Z,101601.78
2022-10-02T20:03:27.406Z,101601.81
2022-10-02T20:06:01.079Z,101602.66
2022-10-02T20:08:36.440Z,101605.31
2022-10-02T20:11:10.501Z,101599.28
2022-10-02T20:13:43.407Z,101601.91
2022-10-02T20:16:35.090Z,101610.63
2022-10-02T20:19:04.205Z,101614.25
2022-10-02T20:21:40.755Z,101625.50
2022-10-02T20:24:16.580Z,101636.91
2022-10-02T20:26:47.817Z,101653.38
2022-10-02T20:29:19.766Z,101654.31
2022-10-02T20:31:53.071Z,101656.97
2022-10-02T20:34:27.817Z,101661.25
2022-10-02T20:37:05.399Z,101666.44
2022-10-02T20:39:38.308Z,101675.13
2022-10-02T20:42:14.817Z,101675.13
2022-10-02T20:44:43.301Z,101675.22
2022-10-02T20:47:44.832Z,101675.53
2022-10-02T20:50:28.131Z,101675.56
2022-10-02T20:53:32.969Z,101679.31
2022-10-02T20:56:08.974Z,101667.16
2022-10-02T20:59:14.849Z,101676.94
2022-10-02T21:01:54.627Z,101671.69
2022-10-02T21:04:46.963Z,101668.31
2022-10-02T21:07:41.803Z,101659.78
2022-10-02T21:10:54.515Z,101664.28
2022-10-02T21:14:09.696Z,101672.19
2022-10-02T21:17:08.567Z,101669.69
2022-10-02T21:20:00.329Z,101667.88
2022-10-02T21:23:01.111Z,101668.91
2022-10-02T21:26:02.551Z,101668.09
2022-10-02T21:29:06.063Z,101664.75
2022-10-02T21:31:52.743Z,101661.34
2022-10-02T21:34:36.613Z,101659.63
2022-10-02T21:37:17.968Z,101651.03
2022-10-02T21:40:42.585Z,101654.69
2022-10-02T21:43:43.457Z,101651.31
2022-10-02T21:46:46.987Z,101664.41
2022-10-02T21:49:53.976Z,101662.69
2022-10-02T21:52:49.126Z,101656.59
2022-10-02T21:55:53.103Z,101669.63
2022-10-02T21:58:55.616Z,101667.00
2022-10-02T22:02:08.282Z,101669.63
2022-10-02T22:05:05.135Z,101667.72
2022-10-02T22:07:40.508Z,101662.50
2022-10-02T22:10:17.779Z,101661.66
2022-10-02T22:12:58.509Z,101656.50
2022-10-02T22:15:37.260Z,101657.41
2022-10-02T22:18:14.774Z,101651.31
2022-10-02T22:21:00.296Z,101647.00
2022-10-02T22:23:42.548Z,101653.94
2022-10-02T22:26:35.055Z,101648.81
2022-10-02T22:29:13.161Z,101652.22
2022-10-02T22:31:53.372Z,101644.38
2022-10-02T22:34:37.245Z,101645.25
2022-10-02T22:37:28.447Z,101640.97
2022-10-02T22:40:06.180Z,101647.88
2022-10-02T22:42:40.689Z,101642.63
2022-10-02T22:45:18.141Z,101633.94
2022-10-02T22:47:54.063Z,101629.63
2022-10-02T22:50:28.551Z,101630.56
2022-10-02T22:53:08.348Z,101634.84
2022-10-02T22:55:45.892Z,101637.34
2022-10-02T22:58:20.015Z,101636.38
2022-10-02T23:00:58.681Z,101631.16
2022-10-02T23:03:34.620Z,101631.94
2022-10-02T23:06:05.909Z,101631.91
2022-10-02T23:08:44.230Z,101628.34
2022-10-02T23:11:18.063Z,101630.97
2022-10-02T23:13:51.370Z,101643.09
2022-10-02T23:16:26.463Z,101648.22
2022-10-02T23:18:59.749Z,101649.06
2022-10-02T23:21:46.197Z,101652.56
2022-10-02T23:24:26.713Z,101653.53
2022-10-02T23:27:06.683Z,101661.28
2022-10-02T23:29:45.003Z,101656.13
2022-10-02T23:32:24.268Z,101657.78
2022-10-02T23:35:01.057Z,101651.59
2022-10-02T23:37:39.478Z,101657.72
2022-10-02T23:40:20.873Z,101648.34
2022-10-02T23:42:52.578Z,101644.84
2022-10-02T23:45:26.937Z,101650.16
2022-10-02T23:48:00.568Z,101644.19
2022-10-02T23:50:37.238Z,101652.00
2022-10-02T23:53:22.811Z,101644.19
2022-10-02T23:56:09.233Z,101652.00
2022-10-02T23:58:50.842Z,101655.47
